VTTSI VOMM-VOMM
Flight info
| Callsign | VTTSI |
|---|---|
| Flight time | 0h 7m |
| Altitude | 3000 |
| Route | 125848N0800826E DCT 125738N0800909E 125925N0801315E 130014N0801245E DCT 125945N0801102E |
| Aircraft | C208/L-SDFGR/C |
Departure
| Time | 2026-04-25 11:43 |
|---|---|
| Airport | Chennai International Airport (VOMM) |
Arrival
| Time | 2026-04-25 11:50 |
|---|---|
| Airport | Chennai International Airport (VOMM) |
| Time | Latitude | Longitude | Altitude | Speed | Heading |
|---|---|---|---|---|---|
| 2026-04-25 11:26 | 12.98377 | 80.15921 | 54 ft | 0 kts | 338° |
| 2026-04-25 11:29 | 12.98378 | 80.15920 | 54 ft | 2 kts | 317° |
| 2026-04-25 11:30 | 12.98373 | 80.15916 | 54 ft | 1 kts | 150° |
| 2026-04-25 11:30 | 12.98351 | 80.15933 | 54 ft | 4 kts | 144° |
| 2026-04-25 11:30 | 12.98339 | 80.15937 | 50 ft | 0 kts | 159° |
| 2026-04-25 11:30 | 12.98326 | 80.15943 | 54 ft | 3 kts | 158° |
| 2026-04-25 11:31 | 12.98284 | 80.15946 | 54 ft | 4 kts | 271° |
| 2026-04-25 11:31 | 12.98290 | 80.15906 | 54 ft | 6 kts | 278° |
| 2026-04-25 11:31 | 12.98295 | 80.15885 | 54 ft | 1 kts | 297° |
| 2026-04-25 11:31 | 12.98297 | 80.15882 | 54 ft | 0 kts | 289° |
| 2026-04-25 11:32 | 12.98308 | 80.15841 | 54 ft | 15 kts | 283° |
| 2026-04-25 11:32 | 12.98323 | 80.15786 | 53 ft | 0 kts | 294° |
| 2026-04-25 11:32 | 12.98325 | 80.15783 | 54 ft | 4 kts | 301° |
| 2026-04-25 11:33 | 12.98390 | 80.15781 | 51 ft | 13 kts | 52° |
| 2026-04-25 11:33 | 12.98412 | 80.15827 | 54 ft | 3 kts | 65° |
| 2026-04-25 11:33 | 12.98436 | 80.15887 | 51 ft | 10 kts | 71° |
| 2026-04-25 11:33 | 12.98456 | 80.15937 | 54 ft | 13 kts | 68° |
| 2026-04-25 11:34 | 12.98487 | 80.16020 | 54 ft | 13 kts | 68° |
| 2026-04-25 11:34 | 12.98507 | 80.16076 | 52 ft | 10 kts | 69° |
| 2026-04-25 11:34 | 12.98559 | 80.16209 | 54 ft | 14 kts | 59° |
| 2026-04-25 11:34 | 12.98662 | 80.16296 | 50 ft | 23 kts | 36° |
| 2026-04-25 11:35 | 12.98755 | 80.16367 | 55 ft | 21 kts | 41° |
| 2026-04-25 11:35 | 12.98875 | 80.16444 | 54 ft | 15 kts | 4° |
| 2026-04-25 11:35 | 12.98953 | 80.16446 | 55 ft | 8 kts | 2° |
| 2026-04-25 11:35 | 12.98994 | 80.16449 | 55 ft | 5 kts | 3° |
| 2026-04-25 11:36 | 12.99023 | 80.16450 | 51 ft | 4 kts | 3° |
| 2026-04-25 11:36 | 12.99058 | 80.16452 | 54 ft | 7 kts | 2° |
| 2026-04-25 11:36 | 12.99097 | 80.16454 | 54 ft | 4 kts | 4° |
| 2026-04-25 11:36 | 12.99120 | 80.16456 | 53 ft | 2 kts | 4° |
| 2026-04-25 11:37 | 12.99164 | 80.16458 | 54 ft | 18 kts | 1° |
| 2026-04-25 11:37 | 12.99324 | 80.16467 | 54 ft | 19 kts | 2° |
| 2026-04-25 11:37 | 12.99426 | 80.16472 | 54 ft | 11 kts | 2° |
| 2026-04-25 11:37 | 12.99485 | 80.16474 | 54 ft | 6 kts | 2° |
| 2026-04-25 11:38 | 12.99538 | 80.16476 | 54 ft | 13 kts | 1° |
| 2026-04-25 11:38 | 12.99659 | 80.16485 | 54 ft | 16 kts | 3° |
| 2026-04-25 11:38 | 12.99742 | 80.16491 | 54 ft | 8 kts | 5° |
| 2026-04-25 11:38 | 12.99790 | 80.16492 | 51 ft | 11 kts | 356° |
| 2026-04-25 11:39 | 12.99936 | 80.16502 | 54 ft | 24 kts | 4° |
| 2026-04-25 11:39 | 13.00058 | 80.16506 | 50 ft | 12 kts | 2° |
| 2026-04-25 11:39 | 13.00098 | 80.16509 | 54 ft | 5 kts | 6° |
| 2026-04-25 11:39 | 13.00107 | 80.16509 | 55 ft | 0 kts | 4° |
| 2026-04-25 11:41 | 13.00124 | 80.16510 | 53 ft | 9 kts | 3° |
| 2026-04-25 11:42 | 13.00210 | 80.16550 | 55 ft | 16 kts | 105° |
| 2026-04-25 11:42 | 13.00121 | 80.16723 | 56 ft | 54 kts | 117° |
| 2026-04-25 11:42 | 12.99887 | 80.17222 | 164 ft | 91 kts | 123° |
| 2026-04-25 11:42 | 12.99653 | 80.17828 | 528 ft | 94 kts | 113° |
| 2026-04-25 11:43 | 12.99471 | 80.18467 | 935 ft | 87 kts | 110° |
| 2026-04-25 11:43 | 12.99484 | 80.19145 | 1083 ft | 109 kts | 80° |
| 2026-04-25 11:43 | 12.99922 | 80.19716 | 1220 ft | 101 kts | 32° |
| 2026-04-25 11:43 | 13.00618 | 80.19628 | 962 ft | 117 kts | 313° |
| 2026-04-25 11:44 | 13.00894 | 80.18928 | 914 ft | 96 kts | 270° |
| 2026-04-25 11:44 | 13.00894 | 80.18263 | 946 ft | 96 kts | 263° |
| 2026-04-25 11:44 | 13.01025 | 80.17556 | 871 ft | 100 kts | 273° |
| 2026-04-25 11:44 | 13.01179 | 80.16846 | 698 ft | 112 kts | 278° |
| 2026-04-25 11:45 | 13.01387 | 80.16112 | 652 ft | 106 kts | 280° |
| 2026-04-25 11:45 | 13.01610 | 80.15416 | 509 ft | 101 kts | 284° |
| 2026-04-25 11:45 | 13.01794 | 80.14745 | 585 ft | 89 kts | 277° |
| 2026-04-25 11:45 | 13.01926 | 80.14113 | 601 ft | 92 kts | 274° |
| 2026-04-25 11:46 | 13.01920 | 80.13461 | 797 ft | 87 kts | 242° |
| 2026-04-25 11:46 | 13.01907 | 80.12772 | 917 ft | 121 kts | 290° |
| 2026-04-25 11:46 | 13.02364 | 80.12076 | 957 ft | 122 kts | 311° |
| 2026-04-25 11:46 | 13.03047 | 80.11458 | 656 ft | 119 kts | 323° |
| 2026-04-25 11:47 | 13.03295 | 80.10878 | 482 ft | 97 kts | 222° |
| 2026-04-25 11:47 | 13.02828 | 80.10602 | 350 ft | 66 kts | 183° |
| 2026-04-25 11:47 | 13.02348 | 80.10692 | 403 ft | 83 kts | 148° |
| 2026-04-25 11:47 | 13.02115 | 80.11256 | 541 ft | 92 kts | 109° |
| 2026-04-25 11:48 | 13.01963 | 80.11858 | 806 ft | 80 kts | 110° |
| 2026-04-25 11:48 | 13.01876 | 80.12381 | 1018 ft | 93 kts | 103° |
| 2026-04-25 11:48 | 13.01753 | 80.13062 | 914 ft | 95 kts | 108° |
| 2026-04-25 11:48 | 13.01622 | 80.13774 | 636 ft | 106 kts | 106° |
| 2026-04-25 11:49 | 13.01350 | 80.14396 | 428 ft | 93 kts | 122° |
| 2026-04-25 11:49 | 13.01038 | 80.14922 | 340 ft | 81 kts | 118° |
| 2026-04-25 11:49 | 13.00780 | 80.15443 | 210 ft | 80 kts | 119° |
| 2026-04-25 11:49 | 13.00541 | 80.15937 | 119 ft | 71 kts | 125° |
| 2026-04-25 11:50 | 13.00304 | 80.16366 | 63 ft | 64 kts | 124° |
| 2026-04-25 11:50 | 13.00121 | 80.16714 | 54 ft | 49 kts | 123° |
| 2026-04-25 11:50 | 12.99905 | 80.17131 | 81 ft | 93 kts | 119° |
| 2026-04-25 11:50 | 12.99726 | 80.17608 | 174 ft | 121 kts | 115° |
| 2026-04-25 11:51 | 12.99260 | 80.18684 | 631 ft | 133 kts | 118° |
| 2026-04-25 11:51 | 12.98968 | 80.19498 | 996 ft | 118 kts | 112° |
| 2026-04-25 11:51 | 12.98918 | 80.20287 | 1100 ft | 99 kts | 81° |
| 2026-04-25 11:51 | 12.99134 | 80.20693 | 1075 ft | 100 kts | 50° |
| 2026-04-25 11:52 | 12.99841 | 80.20872 | 818 ft | 122 kts | 348° |
| 2026-04-25 11:52 | 13.00381 | 80.20333 | 697 ft | 108 kts | 282° |
| 2026-04-25 11:52 | 13.00492 | 80.19663 | 759 ft | 84 kts | 259° |
| 2026-04-25 11:52 | 13.00385 | 80.19032 | 708 ft | 102 kts | 248° |
| 2026-04-25 11:53 | 13.00151 | 80.18350 | 699 ft | 98 kts | 239° |
| 2026-04-25 11:53 | 12.99831 | 80.17718 | 441 ft | 99 kts | 234° |
| 2026-04-25 11:53 | 12.99598 | 80.17125 | 492 ft | 89 kts | 241° |
| 2026-04-25 11:53 | 12.99322 | 80.16461 | 575 ft | 113 kts | 235° |
| 2026-04-25 11:54 | 12.99010 | 80.15773 | 613 ft | 103 kts | 244° |
| 2026-04-25 11:54 | 12.98863 | 80.15073 | 456 ft | 99 kts | 255° |
| 2026-04-25 11:54 | 12.98288 | 80.14598 | 304 ft | 83 kts | 119° |
| 2026-04-25 11:55 | 12.98377 | 80.15169 | 110 ft | 77 kts | 79° |
| 2026-04-25 11:55 | 12.98550 | 80.15640 | 51 ft | 61 kts | 75° |
| 2026-04-25 11:55 | 12.98662 | 80.15961 | 52 ft | 34 kts | 78° |
| 2026-04-25 11:55 | 12.98755 | 80.16200 | 54 ft | 39 kts | 69° |
| 2026-04-25 11:56 | 12.98832 | 80.16415 | 54 ft | 34 kts | 69° |
| 2026-04-25 11:56 | 12.98923 | 80.16657 | 55 ft | 38 kts | 66° |
| 2026-04-25 11:56 | 12.99024 | 80.16927 | 50 ft | 42 kts | 72° |
| 2026-04-25 11:56 | 12.99132 | 80.17178 | 52 ft | 16 kts | 29° |
| 2026-04-25 11:57 | 12.99257 | 80.17192 | 51 ft | 20 kts | 3° |
| 2026-04-25 11:57 | 12.99265 | 80.17086 | 53 ft | 17 kts | 291° |
| 2026-04-25 11:57 | 12.99355 | 80.16968 | 54 ft | 19 kts | 351° |
| 2026-04-25 11:57 | 12.99438 | 80.16999 | 54 ft | 0 kts | 23° |